Time;durP1;ratioP1;P1;durP2;ratioP2;P2;SDS_P1;SDS_P2;PMS_P1;PMS_P2;Temp;Humidity;BMP_temperature;BMP_pressure;BME280_temperature;BME280_humidity;BME280_pressure;Samples;Min_cycle;Max_cycle;Signal;HPM_P1;HPM_P2
2021/01/06 00:00:41;;;;;;;1999.90;999.90;;;3.90;99.90;;;;;;5053098;28;20164;-66
2021/01/06 00:03:09;;;;;;;1999.90;999.90;;;3.90;99.90;;;;;;5053118;28;20164;-66
2021/01/06 00:05:35;;;;;;;1999.90;999.90;;;3.90;99.90;;;;;;5052934;28;20683;-65
2021/01/06 00:08:01;;;;;;;1999.90;999.90;;;3.90;99.90;;;;;;5052991;28;20184;-66
2021/01/06 00:10:28;;;;;;;1999.90;999.90;;;3.90;99.90;;;;;;5052753;28;20179;-66
2021/01/06 00:12:54;;;;;;;1999.90;999.90;;;3.80;99.90;;;;;;5052735;28;20180;-66
2021/01/06 00:15:27;;;;;;;1999.90;999.90;;;3.70;99.90;;;;;;5052788;28;20698;-66
2021/01/06 00:17:53;;;;;;;1999.90;999.90;;;3.70;99.90;;;;;;5052750;28;20241;-66
2021/01/06 00:20:21;;;;;;;1999.90;999.90;;;3.70;99.90;;;;;;5052528;28;20637;-65
2021/01/06 00:22:47;;;;;;;1999.90;999.90;;;3.70;99.90;;;;;;5052737;28;20163;-64
2021/01/06 00:25:18;;;;;;;1999.90;999.90;;;3.70;99.90;;;;;;5052602;28;20194;-65
2021/01/06 00:27:44;;;;;;;1999.90;999.90;;;3.70;99.90;;;;;;5052775;28;20179;-65
2021/01/06 00:30:26;;;;;;;1999.90;999.90;;;3.70;99.90;;;;;;5051959;28;20179;-65
2021/01/06 00:32:52;;;;;;;1999.90;999.90;;;3.90;99.90;;;;;;5052682;28;20174;-65
2021/01/06 00:35:19;;;;;;;1999.90;999.90;;;3.90;99.90;;;;;;5052464;28;20668;-66
2021/01/06 00:37:45;;;;;;;1999.90;999.90;;;4.00;99.90;;;;;;5052306;28;20195;-65
2021/01/06 00:40:12;;;;;;;1999.90;999.90;;;4.00;99.90;;;;;;5052086;28;20914;-65
2021/01/06 00:42:38;;;;;;;1999.90;999.90;;;4.00;99.90;;;;;;5052328;28;20459;-65
2021/01/06 00:45:10;;;;;;;1999.90;999.90;;;4.10;99.90;;;;;;5052227;28;20192;-65
2021/01/06 00:47:35;;;;;;;1999.90;999.90;;;4.10;99.90;;;;;;5052082;28;20233;-65
2021/01/06 00:50:01;;;;;;;1999.90;999.90;;;4.20;99.90;;;;;;5051968;28;20528;-65
2021/01/06 00:52:27;;;;;;;1999.90;999.90;;;4.20;99.90;;;;;;5052058;28;20175;-65
2021/01/06 00:54:53;;;;;;;1999.90;999.90;;;4.20;99.90;;;;;;5051903;28;20480;-65
2021/01/06 00:57:18;;;;;;;1999.90;999.90;;;4.20;99.90;;;;;;5051937;28;20172;-64
2021/01/06 00:59:46;;;;;;;1999.90;999.90;;;4.20;99.90;;;;;;5051738;28;20241;-66
2021/01/06 01:02:11;;;;;;;1999.90;999.90;;;4.20;99.90;;;;;;5051999;28;20254;-65
2021/01/06 01:04:37;;;;;;;1999.90;999.90;;;4.20;99.90;;;;;;5051972;28;20639;-65
2021/01/06 01:07:03;;;;;;;1999.90;999.90;;;4.20;99.90;;;;;;5051778;28;20467;-65
2021/01/06 01:09:28;;;;;;;1999.90;999.90;;;4.20;99.90;;;;;;5051723;28;20250;-65
2021/01/06 01:11:54;;;;;;;1999.90;999.90;;;4.20;99.90;;;;;;5051865;28;20633;-65
2021/01/06 01:14:19;;;;;;;1999.90;999.90;;;4.30;99.90;;;;;;5051656;28;20188;-66
2021/01/06 01:16:46;;;;;;;1999.90;999.90;;;4.30;99.90;;;;;;5051822;28;20222;-64
2021/01/06 01:19:12;;;;;;;1999.90;999.90;;;4.30;99.90;;;;;;5051481;28;20674;-66
2021/01/06 01:21:38;;;;;;;1999.90;999.90;;;4.30;99.90;;;;;;5051594;28;20184;-65
2021/01/06 01:24:05;;;;;;;1999.90;999.90;;;4.30;99.90;;;;;;5051534;28;20164;-65
2021/01/06 01:26:31;;;;;;;1999.90;999.90;;;4.40;99.90;;;;;;5051415;28;20167;-64
2021/01/06 01:28:56;;;;;;;1999.90;999.90;;;4.40;99.90;;;;;;5051323;28;20409;-65
2021/01/06 01:31:33;;;;;;;1999.90;999.90;;;4.40;99.90;;;;;;5051412;28;20634;-65
2021/01/06 01:33:59;;;;;;;1999.90;999.90;;;4.40;99.90;;;;;;5051328;28;20191;-65
2021/01/06 01:36:26;;;;;;;1999.90;999.90;;;4.40;99.90;;;;;;5051337;28;20441;-65
2021/01/06 01:38:51;;;;;;;1999.90;999.90;;;4.40;99.90;;;;;;5050884;28;20207;-64
2021/01/06 01:41:23;;;;;;;1999.90;999.90;;;4.40;99.90;;;;;;5050540;28;20220;-64
2021/01/06 01:43:50;;;;;;;1999.90;999.90;;;4.40;99.90;;;;;;5051214;28;20179;-64
2021/01/06 01:46:49;;;;;;;1999.90;999.90;;;4.50;99.90;;;;;;5051146;28;20190;-64
2021/01/06 01:49:26;;;;;;;1999.90;999.90;;;4.30;99.90;;;;;;5051035;28;20178;-64
2021/01/06 01:52:02;;;;;;;1999.90;999.90;;;4.50;99.90;;;;;;5051110;28;20171;-65
2021/01/06 01:54:29;;;;;;;1999.90;999.90;;;4.50;99.90;;;;;;5050877;28;20237;-64
2021/01/06 01:57:08;;;;;;;1999.90;999.90;;;4.50;99.90;;;;;;5051022;28;20176;-65
2021/01/06 01:59:50;;;;;;;1999.90;999.90;;;4.50;99.90;;;;;;5050706;28;20247;-65
2021/01/06 02:02:37;;;;;;;1999.90;999.90;;;4.50;99.90;;;;;;5050913;28;20206;-65
2021/01/06 02:05:12;;;;;;;1999.90;999.90;;;4.50;99.90;;;;;;5050892;28;20601;-66
2021/01/06 02:07:44;;;;;;;1999.90;999.90;;;4.60;99.90;;;;;;5051090;28;20174;-65
2021/01/06 02:10:14;;;;;;;1999.90;999.90;;;4.50;99.90;;;;;;5050636;28;20186;-65
2021/01/06 02:12:47;;;;;;;1999.90;999.90;;;4.50;99.90;;;;;;5050830;28;20406;-65
2021/01/06 02:15:28;;;;;;;1999.90;999.90;;;4.70;99.90;;;;;;5050798;28;20660;-66
2021/01/06 02:17:54;;;;;;;1999.90;999.90;;;4.60;99.90;;;;;;5050729;28;20942;-65
2021/01/06 02:20:23;;;;;;;1999.90;999.90;;;4.50;99.90;;;;;;5050579;28;20183;-65
2021/01/06 02:22:51;;;;;;;1999.90;999.90;;;4.50;99.90;;;;;;5050702;28;20407;-64
2021/01/06 02:25:17;;;;;;;1999.90;999.90;;;4.50;99.90;;;;;;5050678;28;20192;-64
2021/01/06 02:27:44;;;;;;;1999.90;999.90;;;4.50;99.90;;;;;;5050661;28;20187;-65
2021/01/06 02:30:12;;;;;;;1999.90;999.90;;;4.50;99.90;;;;;;5050358;28;20206;-64
2021/01/06 02:32:38;;;;;;;1999.90;999.90;;;4.60;99.90;;;;;;5050568;28;20215;-65
2021/01/06 02:35:09;;;;;;;1999.90;999.90;;;4.60;99.90;;;;;;5050541;28;20464;-64
2021/01/06 02:37:36;;;;;;;1999.90;999.90;;;4.60;99.90;;;;;;5050624;28;20468;-65
2021/01/06 02:40:03;;;;;;;1999.90;999.90;;;4.60;99.90;;;;;;5050291;28;20485;-65
2021/01/06 02:42:29;;;;;;;1999.90;999.90;;;4.60;99.90;;;;;;5050578;28;20762;-65
2021/01/06 02:44:55;;;;;;;1999.90;999.90;;;4.60;99.90;;;;;;5050497;28;20430;-64
2021/01/06 02:47:20;;;;;;;1999.90;999.90;;;4.50;99.90;;;;;;5050683;28;20172;-65
2021/01/06 02:49:48;;;;;;;1999.90;999.90;;;4.50;99.90;;;;;;5049688;28;20259;-64
2021/01/06 02:52:25;;;;;;;1999.90;999.90;;;4.50;99.90;;;;;;5050405;28;20935;-65
2021/01/06 02:54:52;;;;;;;1999.90;999.90;;;4.50;99.90;;;;;;5054071;28;20214;-65
2021/01/06 02:57:18;;;;;;;1999.90;999.90;;;4.60;99.90;;;;;;5054253;28;20160;-64
2021/01/06 02:59:46;;;;;;;1999.90;999.90;;;4.60;99.90;;;;;;5054010;28;20167;-64
2021/01/06 03:02:19;;;;;;;1999.90;999.90;;;4.50;99.90;;;;;;5054115;28;20907;-65
2021/01/06 03:04:53;;;;;;;1999.90;999.90;;;4.60;99.90;;;;;;5054260;28;20211;-64
2021/01/06 03:07:19;;;;;;;1999.90;999.90;;;4.60;99.90;;;;;;5054128;28;20425;-65
2021/01/06 03:09:45;;;;;;;1999.90;999.90;;;4.50;99.90;;;;;;5053814;28;20163;-64
2021/01/06 03:12:25;;;;;;;1999.90;999.90;;;4.60;99.90;;;;;;5054322;28;20413;-65
2021/01/06 03:14:51;;;;;;;1999.90;999.90;;;4.50;99.90;;;;;;5053960;28;20190;-66
2021/01/06 03:17:17;;;;;;;1999.90;999.90;;;4.50;99.90;;;;;;5053952;28;20621;-65
2021/01/06 03:19:48;;;;;;;1999.90;999.90;;;4.50;99.90;;;;;;5053670;28;20407;-64
2021/01/06 03:22:16;;;;;;;1999.90;999.90;;;4.50;99.90;;;;;;5053882;28;20390;-65
2021/01/06 03:25:02;;;;;;;1999.90;999.90;;;4.50;99.90;;;;;;5053713;28;20183;-65
2021/01/06 03:27:29;;;;;;;1999.90;999.90;;;4.50;99.90;;;;;;5053826;28;20390;-66
2021/01/06 03:29:56;;;;;;;1999.90;999.90;;;4.60;99.90;;;;;;5053478;28;20176;-67
2021/01/06 03:32:56;;;;;;;1999.90;999.90;;;4.60;99.90;;;;;;5053704;28;20402;-66
2021/01/06 03:35:39;;;;;;;1999.90;999.90;;;4.60;99.90;;;;;;5044249;28;20283;-65
2021/01/06 03:38:16;;;;;;;1999.90;999.90;;;4.60;99.90;;;;;;5053389;28;20480;-66
2021/01/06 03:40:49;;;;;;;1999.90;999.90;;;4.60;99.90;;;;;;5053579;28;20398;-66
2021/01/06 03:43:17;;;;;;;1999.90;999.90;;;4.70;99.90;;;;;;5053503;28;20410;-65
2021/01/06 03:45:47;;;;;;;1999.90;999.90;;;4.70;99.90;;;;;;5053367;28;20414;-64
2021/01/06 03:48:20;;;;;;;1999.90;999.90;;;4.80;99.90;;;;;;5053177;28;20413;-64
2021/01/06 03:50:50;;;;;;;1999.90;999.90;;;4.80;99.90;;;;;;5053350;28;20421;-66
2021/01/06 03:53:42;;;;;;;1999.90;999.90;;;4.80;99.90;;;;;;5053202;28;20448;-67
2021/01/06 03:56:19;;;;;;;1999.90;999.90;;;4.80;99.90;;;;;;5068981;22;20653;-66
2021/01/06 03:59:07;;;;;;;1999.90;999.90;;;4.80;99.90;;;;;;5052962;28;20950;-66
2021/01/06 04:01:51;;;;;;;1999.90;999.90;;;4.80;99.90;;;;;;5053208;28;20751;-65
2021/01/06 04:04:25;;;;;;;1999.90;999.90;;;4.90;99.90;;;;;;5052390;28;20976;-65
2021/01/06 04:06:54;;;;;;;1999.90;999.90;;;4.90;99.90;;;;;;5033217;28;20397;-65
2021/01/06 04:09:38;;;;;;;1999.90;999.90;;;4.90;99.90;;;;;;5032891;28;21067;-66
2021/01/06 04:12:09;;;;;;;1999.90;999.90;;;4.90;99.90;;;;;;5033070;28;20403;-66
2021/01/06 04:14:35;;;;;;;1999.90;999.90;;;4.90;99.90;;;;;;5033117;28;20814;-66
2021/01/06 04:17:29;;;;;;;1999.90;999.90;;;4.90;99.90;;;;;;5033162;28;20490;-66
2021/01/06 04:20:27;;;;;;;1999.90;999.90;;;5.00;99.90;;;;;;5032271;28;20192;-65
2021/01/06 04:22:55;;;;;;;1999.90;999.90;;;5.00;99.90;;;;;;5032550;28;20188;-66
2021/01/06 04:25:22;;;;;;;1999.90;999.90;;;4.90;99.90;;;;;;5032667;28;20196;-66
2021/01/06 04:27:53;;;;;;;1999.90;999.90;;;4.80;99.90;;;;;;5032755;28;20427;-65
2021/01/06 04:30:36;;;;;;;1999.90;999.90;;;4.80;99.90;;;;;;5032466;28;20172;-66
2021/01/06 04:33:09;;;;;;;1999.90;999.90;;;4.80;99.90;;;;;;5032663;28;20403;-65
2021/01/06 04:35:35;;;;;;;1999.90;999.90;;;4.80;99.90;;;;;;5032474;28;20970;-66
2021/01/06 04:38:01;;;;;;;1999.90;999.90;;;4.80;99.90;;;;;;5032485;28;20451;-66
2021/01/06 04:40:35;;;;;;;1999.90;999.90;;;4.90;99.90;;;;;;5032373;28;20571;-66
2021/01/06 04:43:34;;;;;;;1999.90;999.90;;;4.80;99.90;;;;;;5032504;28;20431;-66
2021/01/06 04:46:21;;;;;;;1999.90;999.90;;;4.90;99.90;;;;;;5030228;28;20431;-65
2021/01/06 04:48:50;;;;;;;1999.90;999.90;;;4.90;99.90;;;;;;5032339;28;20924;-66
2021/01/06 04:51:42;;;;;;;1999.90;999.90;;;4.90;99.90;;;;;;5032289;28;20916;-65
2021/01/06 04:54:36;;;;;;;1999.90;999.90;;;4.90;99.90;;;;;;5032381;28;20399;-66
2021/01/06 04:57:14;;;;;;;1999.90;999.90;;;5.00;99.90;;;;;;5032389;28;20795;-65
2021/01/06 05:00:04;;;;;;;1999.90;999.90;;;5.00;99.90;;;;;;5031899;28;20450;-66
2021/01/06 05:02:55;;;;;;;1999.90;999.90;;;4.90;99.90;;;;;;5032082;28;20395;-65
2021/01/06 05:05:30;;;;;;;1999.90;999.90;;;5.00;99.90;;;;;;5031948;28;20735;-66
2021/01/06 05:08:34;;;;;;;1999.90;999.90;;;4.90;99.90;;;;;;5031960;28;20465;-66
2021/01/06 05:11:03;;;;;;;1999.90;999.90;;;5.00;99.90;;;;;;5031940;28;20180;-66
2021/01/06 05:13:54;;;;;;;1999.90;999.90;;;5.00;99.90;;;;;;5031917;28;20473;-66
2021/01/06 05:16:28;;;;;;;1999.90;999.90;;;4.90;99.90;;;;;;5031736;28;20561;-65
2021/01/06 05:18:53;;;;;;;1999.90;999.90;;;4.90;99.90;;;;;;5031485;28;20246;-65
2021/01/06 05:21:22;;;;;;;1999.90;999.90;;;4.90;99.90;;;;;;5031686;28;20408;-66
2021/01/06 05:23:54;;;;;;;1999.90;999.90;;;4.80;99.90;;;;;;5031625;28;20175;-66
2021/01/06 05:26:19;;;;;;;1999.90;999.90;;;4.80;99.90;;;;;;5031498;28;20563;-65
2021/01/06 05:28:48;;;;;;;1999.90;999.90;;;4.80;99.90;;;;;;5031158;28;20403;-65
2021/01/06 05:31:14;;;;;;;1999.90;999.90;;;4.80;99.90;;;;;;5031539;28;20195;-65
2021/01/06 05:33:44;;;;;;;1999.90;999.90;;;4.80;99.90;;;;;;5031528;28;20481;-65
2021/01/06 05:36:31;;;;;;;1999.90;999.90;;;4.80;99.90;;;;;;5031527;28;20207;-66
2021/01/06 05:39:01;;;;;;;1999.90;999.90;;;4.80;99.90;;;;;;5031120;28;20604;-66
2021/01/06 05:41:27;;;;;;;1999.90;999.90;;;4.90;99.90;;;;;;5031420;28;20487;-65
2021/01/06 05:43:54;;;;;;;1999.90;999.90;;;4.90;99.90;;;;;;5031400;28;20493;-66
2021/01/06 05:46:30;;;;;;;1999.90;999.90;;;4.90;99.90;;;;;;5031377;28;20194;-65
2021/01/06 05:49:01;;;;;;;1999.90;999.90;;;4.80;99.90;;;;;;5030969;28;20415;-66
2021/01/06 05:51:36;;;;;;;1999.90;999.90;;;4.80;99.90;;;;;;5031369;28;20431;-65
2021/01/06 05:54:13;;;;;;;1999.90;999.90;;;4.80;99.90;;;;;;5031214;28;20699;-65
2021/01/06 05:56:45;;;;;;;1999.90;999.90;;;4.80;99.90;;;;;;5031065;28;20466;-64
2021/01/06 05:59:14;;;;;;;1999.90;999.90;;;4.80;99.90;;;;;;5030980;28;20473;-65
2021/01/06 06:02:03;;;;;;;1999.90;999.90;;;4.80;99.90;;;;;;5031158;28;20908;-66
2021/01/06 06:04:44;;;;;;;1999.90;999.90;;;4.80;99.90;;;;;;5030934;28;20406;-65
2021/01/06 06:07:17;;;;;;;1999.90;999.90;;;4.80;99.90;;;;;;5031166;28;20172;-66
2021/01/06 06:10:20;;;;;;;1999.90;999.90;;;4.80;99.90;;;;;;5030933;28;20626;-66
2021/01/06 06:12:58;;;;;;;1999.90;999.90;;;4.80;99.90;;;;;;5019451;28;20226;-64
2021/01/06 06:15:54;;;;;;;1999.90;999.90;;;4.80;99.90;;;;;;5031081;28;20510;-65
2021/01/06 06:18:48;;;;;;;1999.90;999.90;;;4.80;99.90;;;;;;5030611;28;20478;-65
2021/01/06 06:21:35;;;;;;;1999.90;999.90;;;4.80;99.90;;;;;;5030577;28;20253;-66
2021/01/06 06:24:19;;;;;;;1999.90;999.90;;;4.60;99.90;;;;;;5030978;28;20457;-66
2021/01/06 06:27:18;;;;;;;1999.90;999.90;;;4.70;99.90;;;;;;5030852;28;20434;-65
2021/01/06 06:30:10;;;;;;;1999.90;999.90;;;4.60;99.90;;;;;;5034940;28;20453;-65
2021/01/06 06:32:39;;;;;;;1999.90;999.90;;;4.60;99.90;;;;;;5035033;28;20177;-65
2021/01/06 06:35:24;;;;;;;1999.90;999.90;;;4.60;99.90;;;;;;5035002;28;20222;-66
2021/01/06 06:38:01;;;;;;;1999.90;999.90;;;4.60;99.90;;;;;;5034687;28;20203;-64
2021/01/06 06:40:50;;;;;;;1999.90;999.90;;;4.60;99.90;;;;;;5034498;28;20168;-66
2021/01/06 06:43:35;;;;;;;1999.90;999.90;;;4.60;99.90;;;;;;5034487;28;20168;-66
2021/01/06 06:46:24;;;;;;;1999.90;999.90;;;4.60;99.90;;;;;;5034559;28;20220;-66
2021/01/06 06:49:03;;;;;;;1999.90;999.90;;;4.60;99.90;;;;;;5034272;28;20438;-65
2021/01/06 06:51:39;;;;;;;1999.90;999.90;;;4.50;99.90;;;;;;5034551;28;20168;-65
2021/01/06 06:54:08;;;;;;;1999.90;999.90;;;4.50;99.90;;;;;;5034716;28;20403;-66
2021/01/06 06:56:43;;;;;;;1999.90;999.90;;;4.50;99.90;;;;;;5034390;28;20645;-65
2021/01/06 06:59:32;;;;;;;1999.90;999.90;;;4.40;99.90;;;;;;5034221;28;20200;-65
2021/01/06 07:02:02;;;;;;;1999.90;999.90;;;4.40;99.90;;;;;;5034252;28;20452;-65
2021/01/06 07:04:57;;;;;;;1999.90;999.90;;;4.40;99.90;;;;;;5034162;28;20409;-65
2021/01/06 07:07:44;;;;;;;1999.90;999.90;;;4.40;99.90;;;;;;5034284;28;20532;-65
2021/01/06 07:10:21;;;;;;;1999.90;999.90;;;4.40;99.90;;;;;;5033882;28;20165;-66
2021/01/06 07:12:50;;;;;;;1999.90;999.90;;;4.40;99.90;;;;;;5034043;28;20176;-65
2021/01/06 07:15:26;;;;;;;1999.90;999.90;;;4.30;99.90;;;;;;5033925;28;20521;-66
2021/01/06 07:17:52;;;;;;;1999.90;999.90;;;4.30;99.90;;;;;;5034094;28;20450;-66
2021/01/06 07:20:39;;;;;;;1999.90;999.90;;;4.30;99.90;;;;;;5033884;28;20223;-66
2021/01/06 07:23:17;;;;;;;1999.90;999.90;;;4.40;99.90;;;;;;5033968;28;20391;-65
2021/01/06 07:25:45;;;;;;;1999.90;999.90;;;4.30;99.90;;;;;;5033895;28;20468;-66
2021/01/06 07:28:17;;;;;;;1999.90;999.90;;;4.40;99.90;;;;;;5033522;28;20790;-66
2021/01/06 07:30:46;;;;;;;1999.90;999.90;;;4.40;99.90;;;;;;5034028;28;20606;-66
2021/01/06 07:33:38;;;;;;;1999.90;999.90;;;4.50;99.90;;;;;;5033660;28;20415;-66
2021/01/06 07:36:32;;;;;;;1999.90;999.90;;;4.50;99.90;;;;;;5033442;28;20442;-66
2021/01/06 07:39:00;;;;;;;1999.90;999.90;;;4.40;99.90;;;;;;5024316;28;20204;-65
2021/01/06 07:41:27;;;;;;;1999.90;999.90;;;4.40;99.90;;;;;;5033291;28;20164;-65
2021/01/06 07:44:20;;;;;;;1999.90;999.90;;;4.30;99.90;;;;;;5033496;28;20203;-65
2021/01/06 07:47:02;;;;;;;1999.90;999.90;;;4.30;99.90;;;;;;5033410;28;20172;-65
2021/01/06 07:49:33;;;;;;;1999.90;999.90;;;4.20;99.90;;;;;;5033104;28;20400;-66
2021/01/06 07:52:25;;;;;;;1999.90;999.90;;;4.20;99.90;;;;;;5033458;28;20179;-65
2021/01/06 07:55:25;;;;;;;1999.90;999.90;;;4.10;99.90;;;;;;5028850;28;20575;-65
2021/01/06 07:58:11;;;;;;;1999.90;999.90;;;4.00;99.90;;;;;;5014526;28;20215;-66
2021/01/06 08:01:03;;;;;;;1999.90;999.90;;;4.00;99.90;;;;;;5033214;28;20177;-66
2021/01/06 08:03:44;;;;;;;1999.90;999.90;;;4.00;99.90;;;;;;5033264;28;20677;-66
2021/01/06 08:06:09;;;;;;;1999.90;999.90;;;4.00;99.90;;;;;;5033217;28;20242;-66
2021/01/06 08:08:47;;;;;;;1999.90;999.90;;;4.00;99.90;;;;;;5033035;28;20181;-65
2021/01/06 08:11:15;;;;;;;1999.90;999.90;;;4.00;99.90;;;;;;5033192;28;20191;-65
2021/01/06 08:13:47;;;;;;;1999.90;999.90;;;3.90;99.90;;;;;;5032851;28;20211;-66
2021/01/06 08:16:19;;;;;;;1999.90;999.90;;;4.00;99.90;;;;;;5032857;28;20176;-66
2021/01/06 08:18:53;;;;;;;1999.90;999.90;;;3.90;99.90;;;;;;5032678;28;20544;-66
2021/01/06 08:21:33;;;;;;;1999.90;999.90;;;4.10;99.90;;;;;;5032816;28;20168;-65
2021/01/06 08:24:11;;;;;;;1999.90;999.90;;;4.10;99.90;;;;;;5032772;28;20183;-66
2021/01/06 08:26:47;;;;;;;1999.90;999.90;;;4.20;99.90;;;;;;5032703;28;20675;-65
2021/01/06 08:29:20;;;;;;;1999.90;999.90;;;4.30;99.90;;;;;;5032622;28;20203;-66
2021/01/06 08:31:50;;;;;;;1999.90;999.90;;;4.20;99.90;;;;;;5032548;28;20531;-65
2021/01/06 08:34:37;;;;;;;1999.90;999.90;;;4.30;99.90;;;;;;5032561;28;20749;-65
2021/01/06 08:37:12;;;;;;;1999.90;999.90;;;4.30;99.90;;;;;;5032586;28;20168;-65
2021/01/06 08:39:58;;;;;;;1999.90;999.90;;;4.40;99.90;;;;;;5032269;28;20231;-65
2021/01/06 08:42:45;;;;;;;1999.90;999.90;;;4.50;99.90;;;;;;5032438;28;20460;-65
2021/01/06 08:45:34;;;;;;;1999.90;999.90;;;4.50;99.90;;;;;;5032369;28;20185;-65
2021/01/06 08:48:36;;;;;;;1999.90;999.90;;;4.60;99.90;;;;;;5029315;28;20711;-66
2021/01/06 08:51:15;;;;;;;1999.90;999.90;;;4.70;99.90;;;;;;5009506;28;20191;-65
2021/01/06 08:53:43;;;;;;;1999.90;999.90;;;4.80;99.90;;;;;;5030012;28;20422;-66
2021/01/06 08:56:22;;;;;;;1999.90;999.90;;;4.80;99.90;;;;;;5031997;28;20204;-66
2021/01/06 08:58:57;;;;;;;1999.90;999.90;;;4.80;99.90;;;;;;5031851;28;20470;-65
2021/01/06 09:01:26;;;;;;;1999.90;999.90;;;4.90;99.90;;;;;;5032044;28;20923;-66
2021/01/06 09:04:09;;;;;;;1999.90;999.90;;;4.90;99.90;;;;;;5031961;28;20429;-65
2021/01/06 09:06:48;;;;;;;1999.90;999.90;;;5.00;99.90;;;;;;5031982;28;20510;-65
2021/01/06 09:10:04;;;;;;;1999.90;999.90;;;4.90;99.90;;;;;;5031727;28;20437;-65
2021/01/06 09:12:38;;;;;;;1999.90;999.90;;;4.80;99.90;;;;;;5018288;28;20426;-65
2021/01/06 09:15:14;;;;;;;1999.90;999.90;;;4.80;99.90;;;;;;5028412;28;20196;-66
2021/01/06 09:17:52;;;;;;;1999.90;999.90;;;4.80;99.90;;;;;;5030755;28;20449;-65
2021/01/06 09:20:28;;;;;;;1999.90;999.90;;;4.90;99.90;;;;;;5029403;28;20395;-65
2021/01/06 09:22:54;;;;;;;1999.90;999.90;;;4.90;99.90;;;;;;5030146;28;20398;-66
2021/01/06 09:25:25;;;;;;;1999.90;999.90;;;4.90;99.90;;;;;;5030055;28;20423;-66
2021/01/06 09:27:52;;;;;;;1999.90;999.90;;;5.00;99.90;;;;;;5029849;28;20469;-65
2021/01/06 09:30:27;;;;;;;1999.90;999.90;;;5.00;99.90;;;;;;5028668;28;20407;-66
2021/01/06 09:32:56;;;;;;;1999.90;999.90;;;4.90;99.90;;;;;;5029218;28;20445;-66
2021/01/06 09:35:26;;;;;;;1999.90;999.90;;;4.90;99.90;;;;;;5029815;28;20418;-66
2021/01/06 09:38:01;;;;;;;1999.90;999.90;;;5.00;99.90;;;;;;5029815;28;20453;-66
2021/01/06 09:40:30;;;;;;;1999.90;999.90;;;4.90;99.90;;;;;;5029178;28;20395;-66
2021/01/06 09:43:18;;;;;;;1999.90;999.90;;;4.90;99.90;;;;;;5029535;28;20439;-66
2021/01/06 09:45:44;;;;;;;1999.90;999.90;;;4.90;99.90;;;;;;5029691;28;20192;-66
2021/01/06 09:48:13;;;;;;;1999.90;999.90;;;4.90;99.90;;;;;;5029108;28;20466;-66
2021/01/06 09:50:44;;;;;;;1999.90;999.90;;;4.90;99.90;;;;;;5029711;28;20411;-66
2021/01/06 09:53:15;;;;;;;1999.90;999.90;;;4.90;99.90;;;;;;5029373;28;20588;-65
2021/01/06 09:55:47;;;;;;;1999.90;999.90;;;4.90;99.90;;;;;;5028916;28;20204;-65
2021/01/06 09:58:21;;;;;;;1999.90;999.90;;;5.00;99.90;;;;;;5029145;28;20958;-65
2021/01/06 10:01:28;;;;;;;1999.90;999.90;;;5.00;99.90;;;;;;5029482;28;20891;-66
2021/01/06 10:03:55;;;;;;;1999.90;999.90;;;5.00;99.90;;;;;;5027549;28;20486;-66
2021/01/06 10:06:29;;;;;;;1999.90;999.90;;;5.10;99.90;;;;;;5029559;28;20438;-66
2021/01/06 10:09:15;;;;;;;1999.90;999.90;;;5.10;99.90;;;;;;5028739;28;20601;-66
2021/01/06 10:11:56;;;;;;;1999.90;999.90;;;5.10;99.90;;;;;;5028576;28;20418;-66
2021/01/06 10:14:48;;;;;;;1999.90;999.90;;;5.20;99.90;;;;;;5029031;28;20438;-65
2021/01/06 10:17:24;;;;;;;1999.90;999.90;;;5.20;99.90;;;;;;5028809;28;20411;-66
2021/01/06 10:20:13;;;;;;;1999.90;999.90;;;5.20;99.90;;;;;;5029038;28;20699;-66
2021/01/06 10:22:55;;;;;;;1999.90;999.90;;;5.20;99.90;;;;;;5028929;28;20901;-65
2021/01/06 10:25:41;;;;;;;1999.90;999.90;;;5.10;99.90;;;;;;5028595;28;20453;-65
2021/01/06 10:28:22;;;;;;;1999.90;999.90;;;5.00;99.90;;;;;;5028931;28;20410;-65
2021/01/06 10:31:08;;;;;;;1999.90;999.90;;;4.80;99.90;;;;;;5029165;28;20665;-65
2021/01/06 10:33:35;;;;;;;1999.90;999.90;;;4.60;99.90;;;;;;5028438;28;20222;-65
2021/01/06 10:36:18;;;;;;;1999.90;999.90;;;4.50;99.90;;;;;;5028940;28;20283;-66
2021/01/06 10:38:44;;;;;;;1999.90;999.90;;;4.40;99.90;;;;;;5028730;28;20205;-66
2021/01/06 10:41:19;;;;;;;1999.90;999.90;;;4.20;99.90;;;;;;5028624;28;20597;-66
2021/01/06 10:43:44;;;;;;;1999.90;999.90;;;4.20;99.90;;;;;;5028639;28;20571;-66
2021/01/06 10:46:33;;;;;;;1999.90;999.90;;;4.20;99.90;;;;;;5029113;28;20220;-66
2021/01/06 10:48:59;;;;;;;1999.90;999.90;;;4.40;99.90;;;;;;5028086;28;20584;-66
2021/01/06 10:51:56;;;;;;;1999.90;999.90;;;4.40;99.90;;;;;;5029064;28;20183;-66
2021/01/06 10:54:38;;;;;;;1999.90;999.90;;;4.50;99.90;;;;;;5028486;28;20403;-66
2021/01/06 10:57:37;;;;;;;1999.90;999.90;;;4.60;99.90;;;;;;5028832;28;20188;-66
2021/01/06 11:00:19;;;;;;;1999.90;999.90;;;4.60;99.90;;;;;;5028635;28;20172;-66
2021/01/06 11:03:09;;;;;;;1999.90;999.90;;;4.60;99.90;;;;;;5028346;28;20165;-66
2021/01/06 11:05:44;;;;;;;1999.90;999.90;;;4.60;99.90;;;;;;5028806;28;20193;-66
2021/01/06 11:08:39;;;;;;;1999.90;999.90;;;4.60;99.90;;;;;;5028727;28;20199;-66
2021/01/06 11:11:52;;;;;;;1999.90;999.90;;;4.50;99.90;;;;;;5028377;28;20276;-66
2021/01/06 11:14:29;;;;;;;1999.90;999.90;;;4.40;99.90;;;;;;4968991;28;20181;-65
2021/01/06 11:17:11;;;;;;;1999.90;999.90;;;4.40;99.90;;;;;;4970561;28;20193;-64
2021/01/06 11:19:43;;;;;;;1999.90;999.90;;;4.30;99.90;;;;;;5014764;28;20267;-66
2021/01/06 11:22:38;;;;;;;1999.90;999.90;;;4.30;99.90;;;;;;5032419;28;20165;-64
2021/01/06 11:25:56;;;;;;;1999.90;999.90;;;4.30;99.90;;;;;;5031984;28;20235;-65
2021/01/06 11:28:55;;;;;;;1999.90;999.90;;;4.30;99.90;;;;;;5029786;28;20246;-67
2021/01/06 11:31:24;;;;;;;1999.90;999.90;;;4.40;99.90;;;;;;5031902;28;20287;-66
2021/01/06 11:33:52;;;;;;;1999.90;999.90;;;4.50;99.90;;;;;;5031889;28;20229;-66
2021/01/06 11:36:36;;;;;;;1999.90;999.90;;;4.50;99.90;;;;;;5031938;28;20216;-66
2021/01/06 11:39:07;;;;;;;1999.90;999.90;;;4.60;99.90;;;;;;5031393;28;20254;-66
2021/01/06 11:41:32;;;;;;;1999.90;999.90;;;4.60;99.90;;;;;;5031896;28;20175;-66
2021/01/06 11:44:07;;;;;;;1999.90;999.90;;;4.50;99.90;;;;;;5031862;28;20164;-66
2021/01/06 11:46:43;;;;;;;1999.90;999.90;;;4.60;99.90;;;;;;5031668;28;20180;-66
2021/01/06 11:49:12;;;;;;;1999.90;999.90;;;4.50;99.90;;;;;;5031685;28;20187;-67
2021/01/06 11:51:39;;;;;;;1999.90;999.90;;;4.60;99.90;;;;;;5030841;28;20656;-65
2021/01/06 11:54:22;;;;;;;1999.90;999.90;;;4.70;99.90;;;;;;5031931;28;20180;-65
2021/01/06 11:56:52;;;;;;;1999.90;999.90;;;4.80;99.90;;;;;;5032160;28;20354;-65
2021/01/06 11:59:28;;;;;;;1999.90;999.90;;;4.90;99.90;;;;;;5031954;28;20940;-65
2021/01/06 12:02:12;;;;;;;1999.90;999.90;;;4.90;99.90;;;;;;5031523;28;20518;-65
2021/01/06 12:05:01;;;;;;;1999.90;999.90;;;4.90;99.90;;;;;;5032094;28;20168;-65
2021/01/06 12:07:50;;;;;;;1999.90;999.90;;;4.80;99.90;;;;;;5032069;28;20168;-66
2021/01/06 12:10:52;;;;;;;1999.90;999.90;;;4.80;99.90;;;;;;5030210;28;20441;-65
2021/01/06 12:13:18;;;;;;;1999.90;999.90;;;4.70;99.90;;;;;;5031675;28;20164;-65
2021/01/06 12:16:06;;;;;;;1999.90;999.90;;;4.70;99.90;;;;;;5031478;28;20514;-65
2021/01/06 12:19:08;;;;;;;1999.90;999.90;;;4.60;99.90;;;;;;5031562;28;20975;-65
2021/01/06 12:21:34;;;;;;;1999.90;999.90;;;4.50;99.90;;;;;;5031581;28;20175;-64
2021/01/06 12:24:22;;;;;;;1999.90;999.90;;;4.50;99.90;;;;;;5031115;28;20169;-65
2021/01/06 12:27:20;;;;;;;1999.90;999.90;;;4.50;99.90;;;;;;5027124;28;20191;-65
2021/01/06 12:29:45;;;;;;;1999.90;999.90;;;4.60;99.90;;;;;;5031326;28;20516;-65
2021/01/06 12:32:40;;;;;;;1999.90;999.90;;;4.60;99.90;;;;;;5030870;28;20260;-65
2021/01/06 12:35:24;;;;;;;1999.90;999.90;;;4.60;99.90;;;;;;5020931;28;20228;-65
2021/01/06 12:38:08;;;;;;;1999.90;999.90;;;4.60;99.90;;;;;;5030952;28;20161;-65
2021/01/06 12:40:52;;;;;;;1999.90;999.90;;;4.60;99.90;;;;;;5031089;28;20161;-65
2021/01/06 12:43:24;;;;;;;1999.90;999.90;;;4.60;99.90;;;;;;5031091;28;20160;-66
2021/01/06 12:46:01;;;;;;;1999.90;999.90;;;4.60;99.90;;;;;;5030803;28;20275;-65
2021/01/06 12:48:33;;;;;;;1999.90;999.90;;;4.70;99.90;;;;;;5031013;28;20402;-65
2021/01/06 12:51:18;;;;;;;1999.90;999.90;;;4.70;99.90;;;;;;5031170;28;20271;-66
2021/01/06 12:54:00;;;;;;;1999.90;999.90;;;4.80;99.90;;;;;;5031246;28;20232;-65